Time;durP1;ratioP1;P1;durP2;ratioP2;P2;SDS_P1;SDS_P2;PMS_P1;PMS_P2;Temp;Humidity;BMP_temperature;BMP_pressure;BME280_temperature;BME280_humidity;BME280_pressure;Samples;Min_cycle;Max_cycle;Signal;HPM_P1;HPM_P2
2022/12/10 00:01:49;;;;;;;14.57;10.13;;;;;;;-0.11;93.11;100926.09;6235570;28;20244;-71
2022/12/10 00:05:10;;;;;;;15.93;10.07;;;;;;;0.03;93.18;100930.78;6228195;28;20236;-71
2022/12/10 00:08:31;;;;;;;13.33;10.20;;;;;;;0.30;92.35;100933.03;6236066;28;20229;-71
2022/12/10 00:11:54;;;;;;;16.77;9.97;;;;;;;0.33;92.18;100929.41;6225163;28;20240;-71
2022/12/10 00:15:16;;;;;;;19.43;10.53;;;;;;;0.32;91.32;100930.31;6224537;28;20233;-71
2022/12/10 00:18:38;;;;;;;14.47;7.57;;;;;;;0.39;91.59;100939.72;6221352;28;20233;-70
2022/12/10 00:21:58;;;;;;;14.43;9.43;;;;;;;0.30;91.16;100940.13;6214461;28;20229;-71
2022/12/10 00:25:19;;;;;;;12.00;8.57;;;;;;;0.24;91.11;100938.63;6219570;28;21012;-71
2022/12/10 00:28:43;;;;;;;16.23;9.57;;;;;;;0.24;91.52;100940.41;6228610;28;20232;-71
2022/12/10 00:32:05;;;;;;;13.73;8.33;;;;;;;0.30;91.10;100942.78;6230291;28;20224;-71
2022/12/10 00:35:26;;;;;;;14.93;9.07;;;;;;;0.35;91.26;100946.09;6234587;28;20551;-71
2022/12/10 00:38:49;;;;;;;11.20;8.67;;;;;;;0.04;91.39;100933.38;6220960;28;20232;-71
2022/12/10 00:42:10;;;;;;;13.13;8.77;;;;;;;0.06;92.09;100934.16;6235753;28;20220;-72
2022/12/10 00:45:31;;;;;;;14.43;7.67;;;;;;;0.16;91.52;100940.75;6222915;28;20519;-71
2022/12/10 00:48:52;;;;;;;11.10;8.50;;;;;;;0.16;91.26;100947.84;6235650;28;20232;-71
2022/12/10 00:52:13;;;;;;;16.77;8.23;;;;;;;0.14;91.60;100955.00;6219742;28;20228;-71
2022/12/10 00:55:34;;;;;;;12.60;8.37;;;;;;;0.37;90.85;100949.53;6225261;28;20882;-71
2022/12/10 00:58:56;;;;;;;14.50;8.40;;;;;;;0.46;90.88;100954.41;6228187;28;20220;-71
2022/12/10 01:02:18;;;;;;;12.77;7.93;;;;;;;0.55;90.15;100954.84;6212991;28;20256;-71
2022/12/10 01:05:39;;;;;;;12.40;7.57;;;;;;;0.44;89.53;100954.47;6223227;28;20232;-71
2022/12/10 01:09:02;;;;;;;11.60;7.43;;;;;;;0.56;89.66;100961.00;6220805;28;20232;-70
2022/12/10 01:12:22;;;;;;;16.00;7.80;;;;;;;0.33;89.43;100958.56;6185498;28;20233;-71
2022/12/10 01:15:43;;;;;;;11.47;8.20;;;;;;;0.40;89.60;100965.28;6224600;28;20225;-70
2022/12/10 01:19:06;;;;;;;11.40;6.50;;;;;;;0.32;89.89;100964.78;6227211;28;20239;-71
2022/12/10 01:22:29;;;;;;;10.47;8.17;;;;;;;0.52;89.72;100948.81;6209097;28;20236;-71
2022/12/10 01:25:50;;;;;;;14.60;9.53;;;;;;;0.46;89.00;100962.38;6221489;28;20590;-71
2022/12/10 01:29:11;;;;;;;16.17;9.20;;;;;;;0.32;89.32;100962.13;6216645;28;20513;-71
2022/12/10 01:32:34;;;;;;;11.47;6.93;;;;;;;0.34;90.23;100962.91;6224065;28;20248;-71
2022/12/10 01:35:57;;;;;;;12.60;9.03;;;;;;;0.43;89.92;100965.16;6226895;28;20228;-71
2022/12/10 01:39:19;;;;;;;8.57;5.97;;;;;;;0.49;89.67;100971.03;6226018;28;20617;-71
2022/12/10 01:42:40;;;;;;;13.10;6.30;;;;;;;0.51;89.52;100965.66;6225546;28;20232;-71
2022/12/10 01:46:01;;;;;;;12.20;7.70;;;;;;;0.09;90.34;100971.09;6213378;28;20241;-70
2022/12/10 01:49:24;;;;;;;10.57;6.83;;;;;;;-0.07;90.68;100972.72;6212216;28;20248;-71
2022/12/10 01:52:46;;;;;;;7.53;5.33;;;;;;;0.12;90.77;100973.63;6219657;28;20296;-71
2022/12/10 01:56:10;;;;;;;11.50;7.13;;;;;;;0.47;89.95;100978.19;6207193;28;20232;-70
2022/12/10 01:59:32;;;;;;;8.20;5.33;;;;;;;0.41;89.13;100973.19;6210031;28;20319;-72
2022/12/10 02:02:59;;;;;;;9.43;5.27;;;;;;;-0.14;90.09;100973.91;6223561;28;21039;-71
2022/12/10 02:06:32;;;;;;;8.57;6.60;;;;;;;-0.01;90.42;100969.78;6219768;28;20220;-71
2022/12/10 02:10:02;;;;;;;7.07;5.20;;;;;;;0.10;89.71;100979.94;6210911;28;20224;-71
2022/12/10 02:13:30;;;;;;;11.13;6.53;;;;;;;0.10;89.49;100982.56;6217910;28;20232;-71
2022/12/10 02:16:57;;;;;;;7.77;5.27;;;;;;;0.30;89.80;100990.50;6206174;28;20251;-71
2022/12/10 02:20:22;;;;;;;10.80;6.40;;;;;;;0.30;88.77;100979.88;6222237;28;20229;-71
2022/12/10 02:23:47;;;;;;;13.10;6.93;;;;;;;0.48;88.70;100984.38;6210532;28;20598;-70
2022/12/10 02:27:17;;;;;;;11.70;6.00;;;;;;;0.51;88.17;100981.56;6212700;28;20228;-71
2022/12/10 02:30:41;;;;;;;8.37;4.73;;;;;;;0.63;87.48;100973.03;6208613;28;20265;-71
2022/12/10 02:34:06;;;;;;;7.23;5.00;;;;;;;0.56;87.13;100984.88;6208180;28;20233;-71
2022/12/10 02:37:32;;;;;;;10.47;5.87;;;;;;;0.57;87.69;100984.81;6214762;28;20220;-70
2022/12/10 02:40:58;;;;;;;8.50;6.00;;;;;;;0.56;87.72;100984.88;6209857;28;20623;-71
2022/12/10 02:44:22;;;;;;;11.83;6.93;;;;;;;0.72;87.65;100985.88;6229280;28;20817;-71
2022/12/10 02:47:45;;;;;;;10.33;4.50;;;;;;;0.75;86.88;100983.09;6214897;28;20240;-71
2022/12/10 02:51:09;;;;;;;5.40;4.77;;;;;;;0.75;86.45;100980.44;6233353;28;20564;-71
2022/12/10 02:54:38;;;;;;;7.40;5.43;;;;;;;0.82;86.80;100981.84;6213347;28;20316;-70
2022/12/10 02:58:08;;;;;;;11.40;7.63;;;;;;;0.77;86.46;100986.53;6216373;28;20224;-71
2022/12/10 03:01:39;;;;;;;7.80;6.50;;;;;;;0.69;86.17;100993.97;6209919;28;20323;-71
2022/12/10 03:05:07;;;;;;;14.80;7.50;;;;;;;0.80;86.70;100989.91;6215088;28;20244;-71
2022/12/10 03:08:34;;;;;;;7.43;5.00;;;;;;;0.76;86.05;100988.31;6228739;28;20249;-71
2022/12/10 03:12:01;;;;;;;11.97;7.27;;;;;;;0.69;86.63;100991.31;6229164;28;20228;-70
2022/12/10 03:15:25;;;;;;;11.40;7.17;;;;;;;0.53;86.77;100992.97;6223213;28;20524;-71
2022/12/10 03:18:48;;;;;;;11.57;6.00;;;;;;;0.76;86.51;100987.47;6228634;28;20224;-71
2022/12/10 03:22:13;;;;;;;7.57;5.37;;;;;;;0.60;86.89;101002.38;6229065;28;20239;-70
2022/12/10 03:25:36;;;;;;;9.87;6.67;;;;;;;0.56;86.10;100996.31;6229052;28;20232;-71
2022/12/10 03:29:02;;;;;;;9.63;7.20;;;;;;;0.52;86.66;100989.44;6233921;28;20232;-71
2022/12/10 03:32:27;;;;;;;9.83;4.80;;;;;;;0.73;86.53;100990.28;6228167;28;21895;-71
2022/12/10 03:35:48;;;;;;;7.87;5.47;;;;;;;0.64;85.94;100996.00;6233282;28;20235;-71
2022/12/10 03:39:12;;;;;;;9.03;5.83;;;;;;;0.70;85.27;101001.00;6227412;28;20232;-70
2022/12/10 03:42:35;;;;;;;9.80;6.83;;;;;;;0.81;85.31;100993.41;6230680;28;20240;-70
2022/12/10 03:45:56;;;;;;;8.47;5.60;;;;;;;0.87;84.93;100989.59;6230517;28;20312;-70
2022/12/10 03:49:17;;;;;;;11.57;7.23;;;;;;;0.83;84.56;100996.84;6230570;28;21900;-71
2022/12/10 03:52:38;;;;;;;8.20;6.33;;;;;;;0.86;85.30;101007.31;6235081;28;20531;-71
2022/12/10 03:56:00;;;;;;;9.73;5.13;;;;;;;0.81;84.72;101001.38;6229257;28;20236;-71
2022/12/10 03:59:21;;;;;;;11.00;6.63;;;;;;;0.90;84.22;100998.28;6229747;28;20229;-71
2022/12/10 04:02:43;;;;;;;6.10;5.47;;;;;;;0.88;84.25;100988.69;6225379;28;20719;-70
2022/12/10 04:06:04;;;;;;;6.27;4.07;;;;;;;0.93;83.80;100986.66;6225158;28;20237;-70
2022/12/10 04:09:25;;;;;;;6.30;4.60;;;;;;;0.96;84.31;100986.53;6233717;28;20229;-71
2022/12/10 04:16:26;;;;;;;6.43;5.67;;;;;;;0.97;83.75;100990.88;6227053;28;20830;-70
2022/12/10 04:16:28;;;;;;;6.87;5.30;;;;;;;1.11;82.69;100983.13;6231453;28;20244;-70
2022/12/10 04:19:49;;;;;;;9.50;5.40;;;;;;;1.12;82.72;100984.84;6226804;28;20582;-70
2022/12/10 04:26:55;;;;;;;8.83;5.70;;;;;;;1.10;83.29;100986.72;6224951;28;20263;-69
2022/12/10 04:30:17;;;;;;;5.77;4.83;;;;;;;0.96;82.98;100989.19;6226124;28;20654;-70
2022/12/10 04:33:38;;;;;;;7.67;5.33;;;;;;;1.03;82.99;100985.28;6227580;28;20957;-70
2022/12/10 04:36:59;;;;;;;5.97;4.17;;;;;;;1.10;82.72;100984.06;6226548;28;20232;-70
2022/12/10 04:40:20;;;;;;;4.87;3.60;;;;;;;1.01;82.16;100985.38;6227707;28;20982;-71
2022/12/10 04:43:42;;;;;;;4.47;3.60;;;;;;;0.57;83.93;100986.59;6227169;28;20847;-71
2022/12/10 04:47:05;;;;;;;7.13;4.63;;;;;;;0.57;83.90;100989.22;6228308;28;20240;-70
2022/12/10 04:50:26;;;;;;;5.40;3.70;;;;;;;0.66;83.71;100989.69;6238800;28;20261;-70
2022/12/10 04:53:47;;;;;;;4.77;3.60;;;;;;;0.77;83.68;100987.38;6228805;28;20248;-70
2022/12/10 04:57:08;;;;;;;4.30;3.90;;;;;;;0.58;83.51;100991.84;6236593;28;21144;-70
2022/12/10 05:00:29;;;;;;;7.87;4.63;;;;;;;0.61;84.10;100998.78;6232074;28;20259;-70
2022/12/10 05:03:52;;;;;;;5.13;3.97;;;;;;;0.78;83.62;100990.91;6211109;28;20640;-70
2022/12/10 05:07:13;;;;;;;3.83;3.37;;;;;;;0.88;82.86;100989.53;6226893;28;20236;-71
2022/12/10 05:10:35;;;;;;;4.10;3.70;;;;;;;0.89;83.78;100990.38;6231782;28;20232;-71
2022/12/10 05:13:57;;;;;;;5.20;3.43;;;;;;;0.86;82.94;100990.53;6229784;28;20232;-71
2022/12/10 05:17:17;;;;;;;5.00;3.83;;;;;;;0.75;83.06;100999.84;6224739;28;20225;-71
2022/12/10 05:20:39;;;;;;;7.77;3.93;;;;;;;0.88;82.45;100989.53;6229211;28;20228;-70
2022/12/10 05:23:59;;;;;;;4.57;4.13;;;;;;;0.81;82.32;100998.72;6224760;28;20221;-70
2022/12/10 05:27:20;;;;;;;5.47;3.63;;;;;;;0.55;83.38;101002.56;6233072;28;20746;-71
2022/12/10 05:30:41;;;;;;;6.57;5.00;;;;;;;0.52;83.10;101001.88;6227898;28;20339;-70
2022/12/10 05:34:02;;;;;;;5.67;4.80;;;;;;;0.66;84.06;100991.47;6199714;28;20225;-71
2022/12/10 05:37:24;;;;;;;7.17;4.23;;;;;;;0.77;83.03;100994.50;6219017;28;20229;-71
2022/12/10 05:40:45;;;;;;;5.70;3.93;;;;;;;0.82;83.17;101003.94;6229934;28;20232;-70
2022/12/10 05:44:07;;;;;;;5.87;4.57;;;;;;;0.81;83.00;100996.91;6209497;28;20594;-70
2022/12/10 05:47:28;;;;;;;5.63;4.33;;;;;;;0.71;82.96;101000.06;6216380;28;20237;-72
2022/12/10 05:50:49;;;;;;;7.57;5.30;;;;;;;0.71;83.01;100997.41;6221599;28;20256;-71
2022/12/10 05:54:11;;;;;;;5.63;4.10;;;;;;;0.74;82.80;101003.44;6209923;28;20244;-71
2022/12/10 05:57:32;;;;;;;6.53;4.63;;;;;;;0.46;83.75;101008.28;6217572;28;20232;-71
2022/12/10 06:00:53;;;;;;;7.10;5.07;;;;;;;0.56;83.67;101003.44;6216216;28;20971;-70
2022/12/10 06:04:14;;;;;;;5.53;4.07;;;;;;;0.60;83.46;101005.88;6211329;28;20599;-70
2022/12/10 06:07:35;;;;;;;8.20;4.70;;;;;;;0.63;83.10;101010.16;6212689;28;20240;-70
2022/12/10 06:10:58;;;;;;;4.63;4.23;;;;;;;0.74;83.04;101015.84;6223505;28;20237;-70
2022/12/10 06:14:18;;;;;;;6.23;4.90;;;;;;;0.83;83.67;101013.63;6209255;28;20232;-71
2022/12/10 06:17:39;;;;;;;5.30;4.80;;;;;;;0.81;83.05;101015.47;6209977;28;20221;-71
2022/12/10 06:21:03;;;;;;;4.90;4.43;;;;;;;0.92;83.01;101017.63;6207946;28;20259;-71
2022/12/10 06:24:25;;;;;;;5.67;4.67;;;;;;;0.89;82.64;101030.19;6208989;28;20229;-71
2022/12/10 06:27:47;;;;;;;4.97;3.33;;;;;;;0.78;82.66;101031.56;6214660;28;20327;-71
2022/12/10 06:31:08;;;;;;;6.43;4.40;;;;;;;0.75;83.07;101029.03;6219839;28;20262;-70
2022/12/10 06:34:29;;;;;;;5.27;4.03;;;;;;;0.71;82.49;101031.88;6207949;28;20256;-71
2022/12/10 06:37:50;;;;;;;5.00;3.77;;;;;;;0.78;82.36;101034.22;6212105;28;20232;-70
2022/12/10 06:41:13;;;;;;;4.97;3.50;;;;;;;0.96;82.01;101028.97;6223892;28;20236;-70
2022/12/10 06:44:36;;;;;;;4.37;3.87;;;;;;;0.82;82.09;101024.31;6204066;28;20241;-70
2022/12/10 06:47:57;;;;;;;5.17;4.27;;;;;;;0.85;82.52;101029.47;6213214;28;20233;-70
2022/12/10 06:51:18;;;;;;;4.57;3.97;;;;;;;0.79;82.43;101027.13;6229239;28;20277;-70
2022/12/10 06:54:39;;;;;;;3.87;3.07;;;;;;;0.85;82.93;101029.47;6215317;28;20240;-71
2022/12/10 06:58:00;;;;;;;3.20;2.90;;;;;;;0.64;82.35;101034.00;6203243;28;20315;-70
2022/12/10 07:01:25;;;;;;;5.70;3.50;;;;;;;0.65;82.65;101035.69;6218081;28;20316;-70
2022/12/10 07:04:47;;;;;;;4.97;3.70;;;;;;;0.63;81.83;101049.94;6211931;28;20241;-70
2022/12/10 07:08:07;;;;;;;4.97;3.97;;;;;;;0.73;82.28;101049.47;6212284;28;21070;-70
2022/12/10 07:11:30;;;;;;;6.33;4.57;;;;;;;0.73;82.79;101053.94;6221130;28;20241;-70
2022/12/10 07:14:51;;;;;;;5.23;4.33;;;;;;;0.60;82.63;101056.28;6222713;28;20232;-71
2022/12/10 07:18:13;;;;;;;3.90;3.10;;;;;;;0.55;82.47;101068.88;6207634;28;20285;-71
2022/12/10 07:21:36;;;;;;;6.83;4.33;;;;;;;0.62;82.66;101072.13;6221124;28;20237;-70
2022/12/10 07:24:56;;;;;;;6.00;3.73;;;;;;;0.75;81.77;101067.97;6229213;28;20221;-70
2022/12/10 07:28:17;;;;;;;4.60;4.10;;;;;;;0.71;82.12;101075.19;6214989;28;20228;-70
2022/12/10 07:31:39;;;;;;;5.03;4.53;;;;;;;0.58;81.61;101074.06;6221222;28;20225;-70
2022/12/10 07:35:01;;;;;;;5.10;4.30;;;;;;;0.42;82.64;101077.41;6227755;28;20688;-71
2022/12/10 07:38:22;;;;;;;3.50;3.20;;;;;;;0.51;82.12;101084.97;6207559;28;20228;-71
2022/12/10 07:41:43;;;;;;;5.50;3.60;;;;;;;0.49;82.77;101081.53;6210662;28;20359;-71
2022/12/10 07:45:04;;;;;;;4.10;3.43;;;;;;;0.59;83.26;101088.16;6173414;28;20224;-71
2022/12/10 07:48:25;;;;;;;3.57;3.27;;;;;;;0.56;82.51;101097.09;6198124;28;20615;-70
2022/12/10 07:51:48;;;;;;;3.80;3.50;;;;;;;0.64;83.20;101094.13;6209451;28;20311;-70
2022/12/10 07:55:09;;;;;;;5.57;3.70;;;;;;;0.53;82.90;101096.38;6206704;28;20649;-70
2022/12/10 07:58:30;;;;;;;6.30;4.27;;;;;;;0.52;83.50;101092.84;6217004;28;20232;-71
2022/12/10 08:01:53;;;;;;;7.23;4.93;;;;;;;0.56;82.77;101101.56;6190728;28;20776;-69
2022/12/10 08:05:13;;;;;;;5.53;3.23;;;;;;;0.62;82.07;101101.28;6215618;28;20261;-70
2022/12/10 08:08:38;;;;;;;4.57;3.90;;;;;;;0.62;82.56;101104.81;6207196;28;20220;-70
2022/12/10 08:11:59;;;;;;;6.93;4.37;;;;;;;0.54;82.00;101103.41;6206151;28;20233;-70
2022/12/10 08:15:20;;;;;;;5.90;4.20;;;;;;;0.65;81.85;101112.59;6217218;28;20225;-70
2022/12/10 08:18:42;;;;;;;7.53;3.80;;;;;;;0.47;82.25;101104.59;6207693;28;20232;-70
2022/12/10 08:22:03;;;;;;;5.07;4.03;;;;;;;0.42;81.85;101109.22;6225316;28;20250;-69
2022/12/10 08:25:25;;;;;;;5.37;4.43;;;;;;;0.57;82.88;101108.56;6226033;28;20926;-71
2022/12/10 08:28:47;;;;;;;5.03;3.73;;;;;;;0.52;82.05;101114.06;6211797;28;20913;-70
2022/12/10 08:32:09;;;;;;;5.07;4.33;;;;;;;0.54;82.19;101114.03;6206930;28;20233;-70
2022/12/10 08:35:30;;;;;;;4.00;3.70;;;;;;;0.56;81.79;101120.97;6223766;28;20614;-70
2022/12/10 08:38:51;;;;;;;6.00;4.53;;;;;;;0.62;81.51;101122.50;6210650;28;20542;-70
2022/12/10 08:42:13;;;;;;;5.90;4.70;;;;;;;0.86;84.39;101117.88;6214346;28;20552;-70
2022/12/10 08:45:35;;;;;;;3.13;2.83;;;;;;;0.51;82.78;101127.41;6224202;28;20260;-69
2022/12/10 08:48:56;;;;;;;6.23;4.43;;;;;;;0.50;82.39;101131.84;6215606;28;20229;-70
2022/12/10 08:52:17;;;;;;;6.37;4.77;;;;;;;0.60;83.04;101127.00;6208993;28;20788;-70
2022/12/10 08:55:39;;;;;;;5.80;4.00;;;;;;;0.57;82.55;101140.41;6206240;28;20826;-71
2022/12/10 08:59:02;;;;;;;4.87;4.40;;;;;;;0.61;82.50;101139.34;6212140;28;20634;-70
2022/12/10 09:02:22;;;;;;;6.60;5.33;;;;;;;0.61;82.38;101134.91;6211044;28;20228;-69
2022/12/10 09:05:44;;;;;;;7.67;5.17;;;;;;;0.52;81.87;101145.91;6224942;28;20232;-69
2022/12/10 09:09:05;;;;;;;4.30;3.57;;;;;;;0.66;81.28;101143.53;6207857;28;20245;-70
2022/12/10 09:12:26;;;;;;;5.00;4.60;;;;;;;0.61;81.30;101144.63;6213551;28;20954;-70
2022/12/10 09:15:52;;;;;;;4.33;3.40;;;;;;;0.69;81.02;101147.81;6227096;28;20232;-70
2022/12/10 09:19:13;;;;;;;5.97;4.07;;;;;;;0.68;83.90;101160.22;6214417;28;20221;-70
2022/12/10 09:22:36;;;;;;;5.73;3.80;;;;;;;0.93;83.65;101157.34;6218128;28;20229;-69
2022/12/10 09:25:57;;;;;;;5.70;4.23;;;;;;;0.82;81.25;101164.91;6231545;28;20232;-70
2022/12/10 09:29:18;;;;;;;7.13;4.10;;;;;;;0.76;81.46;101165.19;6214192;28;20308;-70
2022/12/10 09:32:41;;;;;;;4.60;3.80;;;;;;;0.47;81.07;101163.81;6214211;28;20529;-69
2022/12/10 09:36:03;;;;;;;4.13;3.47;;;;;;;0.39;81.36;101171.22;6229221;28;20947;-69
2022/12/10 09:39:24;;;;;;;7.20;4.17;;;;;;;0.53;81.46;101171.50;6217372;28;20232;-70
2022/12/10 09:42:55;;;;;;;6.03;3.67;;;;;;;0.68;80.60;101172.63;6214514;28;20228;-70
2022/12/10 09:46:27;;;;;;;3.13;2.90;;;;;;;0.62;80.05;101170.25;6228363;28;20228;-70
2022/12/10 09:50:00;;;;;;;4.23;3.23;;;;;;;0.61;80.06;101171.16;6207970;28;20236;-70
2022/12/10 09:53:22;;;;;;;4.30;3.33;;;;;;;0.64;79.96;101177.22;6203382;28;20245;-71
2022/12/10 09:56:44;;;;;;;6.37;4.10;;;;;;;0.99;83.84;101173.00;6215550;28;20264;-72
2022/12/10 10:00:13;;;;;;;4.70;3.20;;;;;;;1.14;79.18;101161.69;6213908;28;20277;-72
2022/12/10 10:03:40;;;;;;;3.70;3.30;;;;;;;0.88;78.84;101161.16;6196789;28;20244;-70
2022/12/10 10:07:03;;;;;;;4.20;3.47;;;;;;;0.72;78.31;101156.53;6208946;28;21117;-69
2022/12/10 10:10:28;;;;;;;4.40;3.30;;;;;;;0.75;78.58;101166.13;6215565;28;20228;-70
2022/12/10 10:13:53;;;;;;;5.57;3.77;;;;;;;0.75;79.68;101159.00;6210875;28;20277;-70
2022/12/10 10:17:20;;;;;;;3.40;2.90;;;;;;;0.96;79.04;101156.34;6196566;28;20325;-70
2022/12/10 10:20:41;;;;;;;5.30;3.60;;;;;;;1.06;78.25;101147.03;6212439;28;20577;-70
2022/12/10 10:24:05;;;;;;;2.87;2.60;;;;;;;0.93;77.94;101149.38;6203983;28;20567;-70
2022/12/10 10:27:29;;;;;;;4.73;4.23;;;;;;;0.67;78.44;101161.16;6198474;28;20556;-70
2022/12/10 10:30:53;;;;;;;7.57;3.67;;;;;;;0.72;78.24;101159.16;6212283;28;20237;-70
2022/12/10 10:34:19;;;;;;;5.50;4.57;;;;;;;0.64;77.99;101155.13;6197485;28;20236;-70
2022/12/10 10:37:42;;;;;;;5.90;3.70;;;;;;;0.60;78.02;101151.75;6198906;28;20434;-69
2022/12/10 10:41:05;;;;;;;5.00;4.60;;;;;;;0.63;79.13;101161.34;6213438;28;20232;-69
2022/12/10 10:44:29;;;;;;;4.97;4.57;;;;;;;0.56;78.14;101170.50;6196202;28;20319;-71
2022/12/10 10:48:04;;;;;;;6.23;3.87;;;;;;;0.67;78.27;101163.81;6194294;28;20777;-70
2022/12/10 10:51:25;;;;;;;6.30;5.33;;;;;;;0.71;78.79;101168.03;6211591;28;20328;-70
2022/12/10 10:54:47;;;;;;;5.00;2.90;;;;;;;0.70;77.96;101166.34;6215103;28;20229;-70
2022/12/10 10:58:18;;;;;;;5.33;4.40;;;;;;;0.70;78.12;101165.47;6199911;28;20278;-69
2022/12/10 11:01:47;;;;;;;4.80;3.67;;;;;;;0.72;78.00;101167.13;6204591;28;20232;-70
2022/12/10 11:05:17;;;;;;;3.60;2.90;;;;;;;0.65;78.34;101156.84;6214378;28;20236;-70
2022/12/10 11:08:39;;;;;;;3.20;2.90;;;;;;;0.60;78.14;101158.84;6195154;28;20620;-69
2022/12/10 11:12:03;;;;;;;4.23;3.47;;;;;;;0.64;78.40;101155.13;6200208;28;20235;-69
2022/12/10 11:15:34;;;;;;;5.87;3.87;;;;;;;0.66;78.50;101164.75;6221189;28;20606;-69
2022/12/10 11:19:01;;;;;;;4.80;3.43;;;;;;;0.71;78.08;101159.22;6195512;28;20240;-69
2022/12/10 11:22:25;;;;;;;5.67;3.40;;;;;;;0.66;77.81;101156.78;6200921;28;20311;-69
2022/12/10 11:25:54;;;;;;;5.53;4.13;;;;;;;0.87;78.17;101151.44;6211647;28;20244;-69
2022/12/10 11:29:27;;;;;;;4.93;3.77;;;;;;;0.94;77.54;101145.78;6206776;28;20236;-69
2022/12/10 11:33:01;;;;;;;3.77;3.50;;;;;;;0.84;77.93;101149.78;6204896;28;20327;-69
2022/12/10 11:36:35;;;;;;;6.20;4.57;;;;;;;0.80;78.57;101148.22;6211489;28;20335;-69
2022/12/10 11:40:20;;;;;;;7.27;5.20;;;;;;;0.92;77.44;101142.34;6223321;28;20339;-70
2022/12/10 11:43:55;;;;;;;5.63;4.73;;;;;;;1.00;77.04;101142.84;6207351;28;20360;-69
2022/12/10 11:47:40;;;;;;;4.37;3.70;;;;;;;1.13;76.24;101146.69;6201629;28;21324;-68
2022/12/10 11:51:07;;;;;;;5.37;3.53;;;;;;;1.13;76.10;101145.81;6219407;28;21783;-69
2022/12/10 11:54:41;;;;;;;5.07;4.57;;;;;;;0.83;76.79;101153.41;6212265;28;20236;-69
2022/12/10 11:58:22;;;;;;;4.70;4.00;;;;;;;0.92;77.12;101138.84;6212808;28;20232;-68
2022/12/10 12:01:59;;;;;;;3.50;3.20;;;;;;;0.89;76.59;101146.94;6211312;28;20331;-69
2022/12/10 12:05:36;;;;;;;5.87;5.07;;;;;;;0.93;77.52;101137.91;6214217;28;20727;-70
2022/12/10 12:09:07;;;;;;;6.27;4.40;;;;;;;0.87;77.67;101147.00;6211226;28;20264;-71
2022/12/10 12:12:39;;;;;;;4.87;4.00;;;;;;;0.92;77.57;101138.84;6217634;28;20260;-69
2022/12/10 12:16:04;;;;;;;3.80;3.40;;;;;;;0.88;77.23;101135.47;6212412;28;20244;-68
2022/12/10 12:19:32;;;;;;;4.23;3.47;;;;;;;1.01;77.19;101141.06;6210693;28;20319;-68
2022/12/10 12:22:59;;;;;;;3.80;3.50;;;;;;;0.95;77.48;101138.69;6209826;28;20240;-67
2022/12/10 12:26:28;;;;;;;3.93;3.53;;;;;;;0.86;77.61;101145.28;6233052;28;20220;-68
2022/12/10 12:29:59;;;;;;;8.20;4.27;;;;;;;0.95;77.38;101134.25;6235149;28;20263;-69
2022/12/10 12:33:29;;;;;;;5.63;3.77;;;;;;;0.99;77.19;101138.50;6218104;28;20228;-68
2022/12/10 12:36:51;;;;;;;7.83;4.50;;;;;;;0.87;77.09;101140.84;6220812;28;20240;-68
2022/12/10 12:40:16;;;;;;;4.37;3.60;;;;;;;0.78;76.37;101142.09;6212863;28;20789;-69
2022/12/10 12:43:45;;;;;;;6.73;4.10;;;;;;;0.88;76.94;101132.81;6202247;28;20259;-70
2022/12/10 12:47:23;;;;;;;4.73;4.10;;;;;;;0.82;76.72;101141.91;6191768;28;20228;-68
2022/12/10 12:50:46;;;;;;;9.13;4.57;;;;;;;0.80;76.92;101140.25;6203184;28;20236;-68
2022/12/10 12:54:09;;;;;;;6.07;4.53;;;;;;;0.24;77.06;101141.84;6188923;28;20275;-68
2022/12/10 12:57:36;;;;;;;5.90;4.73;;;;;;;0.47;77.82;101139.06;6196832;28;20747;-67
2022/12/10 13:01:08;;;;;;;7.67;4.70;;;;;;;0.59;76.72;101143.84;6201844;28;20328;-69
2022/12/10 13:04:30;;;;;;;6.97;4.50;;;;;;;0.35;77.16;101139.59;6204862;28;20660;-69
2022/12/10 13:08:21;;;;;;;3.93;3.63;;;;;;;0.17;77.14;101143.06;6204617;28;20316;-70
2022/12/10 13:11:43;;;;;;;6.67;3.23;;;;;;;0.29;77.53;101146.03;6199227;28;20352;-69
2022/12/10 13:15:19;;;;;;;6.53;4.50;;;;;;;0.58;77.13;101148.31;6194523;28;20233;-68
2022/12/10 13:18:41;;;;;;;4.17;3.80;;;;;;;0.67;77.91;101154.97;6183187;28;20240;-67
2022/12/10 13:22:10;;;;;;;4.90;3.57;;;;;;;0.82;77.05;101151.66;6190837;28;20241;-68
2022/12/10 13:25:42;;;;;;;4.27;3.87;;;;;;;0.97;75.94;101158.94;6215372;28;20235;-69
2022/12/10 13:29:24;;;;;;;5.23;4.00;;;;;;;1.07;75.89;101154.94;6199731;28;20315;-68
2022/12/10 13:32:47;;;;;;;4.70;3.43;;;;;;;1.07;75.54;101162.88;6194195;28;20233;-68
2022/12/10 13:36:09;;;;;;;9.80;5.87;;;;;;;0.75;75.54;101168.78;6213767;28;20264;-68
2022/12/10 13:39:34;;;;;;;5.00;4.50;;;;;;;0.60;76.95;101172.97;6188494;28;20268;-69
2022/12/10 13:47:00;;;;;;;4.60;3.77;;;;;;;0.54;76.59;101173.22;6194079;28;21369;-69
2022/12/10 13:50:36;;;;;;;7.13;4.37;;;;;;;0.68;77.28;101181.47;6212613;28;20757;-69
2022/12/10 13:54:11;;;;;;;6.33;3.90;;;;;;;0.73;75.97;101178.59;6193152;28;20228;-69
2022/12/10 13:57:54;;;;;;;4.80;3.53;;;;;;;0.72;76.08;101188.34;6208105;28;20722;-69
2022/12/10 14:01:26;;;;;;;8.23;5.33;;;;;;;0.65;76.32;101197.50;6231734;28;20232;-69
2022/12/10 14:05:08;;;;;;;7.70;5.00;;;;;;;0.68;76.63;101188.53;6224110;28;20264;-69
2022/12/10 14:08:33;;;;;;;9.03;4.63;;;;;;;0.60;76.41;101193.31;6220840;28;20240;-69
2022/12/10 14:11:58;;;;;;;5.10;4.17;;;;;;;0.83;76.50;101185.22;6228002;28;20243;-69
2022/12/10 14:15:23;;;;;;;5.70;4.23;;;;;;;0.85;76.19;101193.13;6232697;28;20232;-69
2022/12/10 14:18:54;;;;;;;6.20;5.10;;;;;;;0.76;76.24;101189.94;6221389;28;20247;-68
2022/12/10 14:22:19;;;;;;;9.33;5.13;;;;;;;0.67;75.52;101200.06;6215920;28;20236;-69
2022/12/10 14:25:43;;;;;;;6.23;5.47;;;;;;;0.77;76.11;101188.16;6216867;28;20260;-69
2022/12/10 14:29:18;;;;;;;5.30;4.80;;;;;;;0.95;75.29;101197.06;6205814;28;20665;-69
2022/12/10 14:32:40;;;;;;;4.97;4.40;;;;;;;0.82;75.20;101197.63;6206643;28;20308;-68
2022/12/10 14:36:02;;;;;;;6.23;3.60;;;;;;;0.76;75.20;101192.59;6217842;28;20232;-68
2022/12/10 14:39:27;;;;;;;7.03;4.70;;;;;;;0.82;75.31;101192.31;6206788;28;20675;-69
2022/12/10 14:42:49;;;;;;;5.13;3.30;;;;;;;0.79;75.45;101200.41;6208300;28;20535;-69
2022/12/10 14:46:16;;;;;;;5.07;4.27;;;;;;;0.61;75.64;101192.38;6219478;28;20233;-69
2022/12/10 14:49:41;;;;;;;5.30;4.83;;;;;;;0.48;76.37;101197.34;6217085;28;20328;-69
2022/12/10 14:53:02;;;;;;;8.70;4.40;;;;;;;0.68;76.89;101196.50;6216834;28;20225;-68
2022/12/10 14:56:27;;;;;;;8.00;6.10;;;;;;;0.75;75.75;101204.13;6211028;28;20320;-69
2022/12/10 15:00:00;;;;;;;7.63;6.67;;;;;;;0.92;78.94;101206.03;6224176;28;20231;-69
2022/12/10 15:03:28;;;;;;;6.00;5.00;;;;;;;0.76;74.88;101200.56;6213531;28;20323;-70
2022/12/10 15:06:49;;;;;;;5.37;3.67;;;;;;;0.72;75.32;101206.06;6216335;28;20236;-70
2022/12/10 15:10:18;;;;;;;4.97;4.13;;;;;;;0.33;75.66;101215.69;6219814;28;20598;-69
2022/12/10 15:13:41;;;;;;;5.03;4.00;;;;;;;0.31;75.26;101217.53;6223764;28;20673;-69
2022/12/10 15:17:03;;;;;;;6.63;4.47;;;;;;;0.27;75.92;101208.00;6213295;28;20287;-69
2022/12/10 15:20:27;;;;;;;4.50;4.13;;;;;;;0.28;76.21;101215.00;6224043;28;20320;-69
2022/12/10 15:23:49;;;;;;;6.63;4.47;;;;;;;-0.31;77.77;101215.63;6219334;28;20245;-70
2022/12/10 15:27:17;;;;;;;6.83;4.90;;;;;;;-0.29;77.51;101211.13;6217586;28;20236;-70
2022/12/10 15:30:39;;;;;;;5.30;4.30;;;;;;;-0.34;78.39;101220.19;6218173;28;20858;-70
2022/12/10 15:34:02;;;;;;;5.47;4.80;;;;;;;-0.01;77.75;101221.50;6219891;28;20236;-67
2022/12/10 15:37:27;;;;;;;5.63;4.10;;;;;;;0.22;77.00;101231.16;6217325;28;20251;-71
2022/12/10 15:40:48;;;;;;;6.00;5.37;;;;;;;0.39;76.03;101232.22;6219174;28;20236;-69
2022/12/10 15:44:19;;;;;;;5.50;4.93;;;;;;;0.45;76.22;101225.78;6216544;28;20233;-69
2022/12/10 15:47:40;;;;;;;9.87;4.53;;;;;;;0.50;76.69;101221.16;6208196;28;20346;-70
2022/12/10 15:51:02;;;;;;;8.20;5.97;;;;;;;0.73;75.22;101224.53;6197624;28;20694;-70
2022/12/10 15:54:33;;;;;;;5.03;4.50;;;;;;;0.88;75.67;101222.19;6205903;28;20225;-68
2022/12/10 15:57:54;;;;;;;6.83;4.67;;;;;;;0.85;75.10;101224.94;6214802;28;20232;-69
2022/12/10 16:01:16;;;;;;;13.87;9.77;;;;;;;0.80;75.10;101235.75;6212335;28;20256;-71
2022/12/10 16:04:37;;;;;;;12.07;8.43;;;;;;;0.83;75.51;101227.69;6217290;28;20571;-72
2022/12/10 16:08:01;;;;;;;19.80;11.77;;;;;;;0.88;75.52;101224.84;6218796;28;20226;-72